createdAt,value
2023-03-29T00:00:29.207Z,99749.53
2023-03-29T00:02:56.550Z,99744.38
2023-03-29T00:05:25.328Z,99752.97
2023-03-29T00:07:54.355Z,99744.38
2023-03-29T00:10:24.139Z,99746.97
2023-03-29T00:12:52.534Z,99740.06
2023-03-29T00:15:20.152Z,99746.09
2023-03-29T00:17:46.773Z,99743.50
2023-03-29T00:20:13.816Z,99751.25
2023-03-29T00:22:42.303Z,99751.25
2023-03-29T00:25:10.907Z,99740.06
2023-03-29T00:27:38.128Z,99750.41
2023-03-29T00:30:07.922Z,99747.81
2023-03-29T00:32:34.587Z,99742.66
2023-03-29T00:35:01.352Z,99744.38
2023-03-29T00:37:30.031Z,99735.75
2023-03-29T00:39:57.860Z,99734.88
2023-03-29T00:42:26.124Z,99735.75
2023-03-29T00:50:29.830Z,99718.47
2023-03-29T00:55:39.502Z,99713.34
2023-03-29T00:58:09.963Z,99715.06
2023-03-29T01:00:44.649Z,99708.16
2023-03-29T01:03:14.513Z,99710.75
2023-03-29T01:05:45.965Z,99708.16
2023-03-29T01:08:18.351Z,99702.13
2023-03-29T01:10:53.504Z,99704.72
2023-03-29T01:13:31.753Z,99701.28
2023-03-29T01:15:59.330Z,99703.00
2023-03-29T01:18:26.023Z,99697.84
2023-03-29T01:21:10.135Z,99690.97
2023-03-29T01:27:00.643Z,99709.06
2023-03-29T01:29:34.202Z,99692.69
2023-03-29T01:32:09.035Z,99696.16
2023-03-29T01:34:44.710Z,99711.66
2023-03-29T01:37:25.010Z,99703.03
2023-03-29T01:39:52.813Z,99707.34
2023-03-29T01:48:14.916Z,99707.34
2023-03-29T01:50:48.392Z,99707.34
2023-03-29T01:53:27.178Z,99703.06
2023-03-29T01:55:57.231Z,99693.59
2023-03-29T01:58:28.837Z,99689.28
2023-03-29T02:00:57.839Z,99690.97
2023-03-29T02:03:28.134Z,99684.09
2023-03-29T02:05:57.025Z,99682.41
2023-03-29T02:08:24.915Z,99670.31
2023-03-29T02:10:52.528Z,99665.16
2023-03-29T02:13:20.172Z,99665.16
2023-03-29T02:15:47.674Z,99673.78
2023-03-29T02:18:17.925Z,99666.03
2023-03-29T02:20:48.544Z,99655.69
2023-03-29T02:25:56.985Z,99658.28
2023-03-29T02:28:25.130Z,99653.13
2023-03-29T02:36:18.226Z,99657.41
2023-03-29T02:38:45.077Z,99656.53
2023-03-29T02:41:13.096Z,99663.41
2023-03-29T02:43:41.785Z,99660.00
2023-03-29T02:46:08.693Z,99661.69
2023-03-29T02:48:37.801Z,99656.53
2023-03-29T02:51:14.114Z,99660.88
2023-03-29T02:53:46.022Z,99656.53
2023-03-29T02:56:13.670Z,99657.41
2023-03-29T02:58:41.037Z,99658.28
2023-03-29T03:01:09.692Z,99666.88
2023-03-29T03:03:36.653Z,99660.00
2023-03-29T03:06:03.489Z,99658.25
2023-03-29T03:08:30.036Z,99665.16
2023-03-29T03:10:56.675Z,99666.03
2023-03-29T03:13:23.198Z,99660.84
2023-03-29T03:15:50.386Z,99654.81
2023-03-29T03:18:17.571Z,99653.09
2023-03-29T03:20:47.614Z,99642.75
2023-03-29T03:23:14.214Z,99635.00
2023-03-29T03:25:40.719Z,99641.91
2023-03-29T03:28:07.659Z,99637.59
2023-03-29T03:30:34.805Z,99632.41
2023-03-29T03:33:01.491Z,99629.84
2023-03-29T03:35:28.091Z,99629.84
2023-03-29T03:37:54.696Z,99628.97
2023-03-29T03:40:22.101Z,99622.97
2023-03-29T03:42:48.705Z,99622.09
2023-03-29T03:45:15.489Z,99618.63
2023-03-29T03:47:42.382Z,99613.47
2023-03-29T03:50:09.394Z,99607.47
2023-03-29T03:52:36.331Z,99599.72
2023-03-29T03:55:03.026Z,99603.16
2023-03-29T03:57:29.858Z,99593.69
2023-03-29T03:59:56.436Z,99591.09
2023-03-29T04:02:23.466Z,99581.63
2023-03-29T04:04:50.184Z,99584.22
2023-03-29T04:07:17.888Z,99588.56
2023-03-29T04:09:45.187Z,99589.38
2023-03-29T04:12:12.159Z,99591.97
2023-03-29T04:14:38.767Z,99587.69
2023-03-29T04:17:05.759Z,99575.66
2023-03-29T04:19:32.594Z,99565.31
2023-03-29T04:21:59.176Z,99567.06
2023-03-29T04:24:25.851Z,99574.81
2023-03-29T04:26:52.392Z,99582.56
2023-03-29T04:29:18.960Z,99579.97
2023-03-29T04:31:45.676Z,99573.09
2023-03-29T04:34:12.369Z,99565.34
2023-03-29T04:36:39.005Z,99561.94
2023-03-29T04:39:07.931Z,99561.94
2023-03-29T04:41:34.875Z,99559.38
2023-03-29T04:44:03.523Z,99557.66
2023-03-29T04:46:30.483Z,99549.88
2023-03-29T04:48:57.442Z,99550.75
2023-03-29T04:51:24.498Z,99551.63
2023-03-29T04:53:51.376Z,99555.03
2023-03-29T04:56:18.046Z,99539.56
2023-03-29T04:58:44.728Z,99548.16
2023-03-29T05:01:11.462Z,99551.63
2023-03-29T05:03:38.229Z,99549.03
2023-03-29T05:06:07.314Z,99555.91
2023-03-29T05:08:38.436Z,99551.63
2023-03-29T05:11:10.436Z,99568.81
2023-03-29T05:13:37.795Z,99558.50
2023-03-29T05:16:05.206Z,99563.66
2023-03-29T05:18:31.949Z,99567.09
2023-03-29T05:20:59.871Z,99575.69
2023-03-29T05:23:27.018Z,99573.13
2023-03-29T05:25:53.853Z,99575.72
2023-03-29T05:28:21.649Z,99573.97
2023-03-29T05:30:59.546Z,99567.09
2023-03-29T05:33:26.473Z,99569.69
2023-03-29T05:36:01.967Z,99572.28
2023-03-29T05:38:29.816Z,99573.97
2023-03-29T05:40:56.698Z,99566.22
2023-03-29T05:43:23.385Z,99565.41
2023-03-29T05:45:52.151Z,99557.66
2023-03-29T05:48:18.754Z,99558.50
2023-03-29T05:50:48.818Z,99553.34
2023-03-29T05:53:16.541Z,99540.41
2023-03-29T05:55:43.910Z,99544.75
2023-03-29T05:58:13.109Z,99543.00
2023-03-29T06:00:40.900Z,99538.72
2023-03-29T06:03:19.922Z,99543.88
2023-03-29T06:05:49.982Z,99548.16
2023-03-29T06:08:16.947Z,99543.00
2023-03-29T06:10:43.931Z,99543.84
2023-03-29T06:13:10.965Z,99546.41
2023-03-29T06:15:37.652Z,99538.66
2023-03-29T06:18:04.690Z,99549.00
2023-03-29T06:20:31.797Z,99532.63
2023-03-29T06:22:59.025Z,99537.78
2023-03-29T06:25:25.578Z,99548.06
2023-03-29T06:27:52.249Z,99559.25
2023-03-29T06:30:19.391Z,99556.63
2023-03-29T06:32:46.385Z,99554.03
2023-03-29T06:35:13.000Z,99559.16
2023-03-29T06:37:41.511Z,99563.44
2023-03-29T06:40:10.088Z,99575.47
2023-03-29T06:42:36.640Z,99568.59
2023-03-29T06:45:04.190Z,99558.22
2023-03-29T06:47:31.639Z,99563.34
2023-03-29T06:49:58.287Z,99566.78
2023-03-29T06:52:24.898Z,99556.41
2023-03-29T06:54:51.654Z,99552.88
2023-03-29T06:57:18.840Z,99574.31
2023-03-29T06:59:45.503Z,99568.19
2023-03-29T07:02:13.133Z,99556.03
2023-03-29T07:04:41.933Z,99554.25
2023-03-29T07:07:20.039Z,99545.59
2023-03-29T07:09:54.096Z,99550.72
2023-03-29T07:12:22.723Z,99547.19
2023-03-29T07:14:49.347Z,99546.22
2023-03-29T07:17:16.746Z,99539.25
2023-03-29T07:19:43.473Z,99538.41
2023-03-29T07:22:10.146Z,99534.03
2023-03-29T07:24:36.754Z,99531.44
2023-03-29T07:27:04.751Z,99536.63
2023-03-29T07:29:32.503Z,99540.97
2023-03-29T07:31:59.115Z,99536.59
2023-03-29T07:34:25.791Z,99531.41
2023-03-29T07:36:52.594Z,99534.81
2023-03-29T07:39:19.297Z,99522.72
2023-03-29T07:41:45.982Z,99517.47
2023-03-29T07:44:12.507Z,99507.94
2023-03-29T07:46:39.234Z,99504.38
2023-03-29T07:49:07.456Z,99492.13
2023-03-29T07:51:34.266Z,99481.50
2023-03-29T07:54:00.839Z,99494.28
2023-03-29T07:56:27.378Z,99496.56
2023-03-29T07:58:53.951Z,99507.06
2023-03-29T08:01:20.811Z,99504.09
2023-03-29T08:03:48.251Z,99511.06
2023-03-29T08:06:16.256Z,99498.16
2023-03-29T08:08:42.796Z,99496.69
2023-03-29T08:11:10.284Z,99495.91
2023-03-29T08:13:37.486Z,99495.91
2023-03-29T08:16:05.901Z,99490.06
2023-03-29T08:18:34.699Z,99489.25
2023-03-29T08:21:02.224Z,99488.47
2023-03-29T08:23:28.947Z,99491.16
2023-03-29T08:25:55.709Z,99476.53
2023-03-29T08:28:22.404Z,99488.72
2023-03-29T08:30:49.793Z,99478.34
2023-03-29T08:33:17.092Z,99483.56
2023-03-29T08:35:44.051Z,99478.34
2023-03-29T08:38:11.350Z,99474.88
2023-03-29T08:40:38.140Z,99463.56
2023-03-29T08:46:16.614Z,99458.38
2023-03-29T08:48:49.448Z,99451.44
2023-03-29T08:51:40.658Z,99436.13
2023-03-29T08:54:15.418Z,99432.75
2023-03-29T08:56:44.851Z,99429.22
2023-03-29T08:59:20.759Z,99425.63
2023-03-29T09:01:50.865Z,99422.16
2023-03-29T09:04:22.919Z,99418.69
2023-03-29T09:06:49.666Z,99411.03
2023-03-29T09:09:21.171Z,99408.56
2023-03-29T09:23:22.439Z,99379.75
2023-03-29T09:31:23.017Z,99375.72
2023-03-29T09:33:57.947Z,99382.50
2023-03-29T09:39:13.331Z,99378.16
2023-03-29T09:41:47.508Z,99377.31
2023-03-29T09:44:30.335Z,99375.66
2023-03-29T09:47:07.510Z,99377.41
2023-03-29T09:49:39.943Z,99373.00
2023-03-29T09:52:13.026Z,99369.53
2023-03-29T09:54:40.266Z,99358.22
2023-03-29T09:57:09.415Z,99366.13
2023-03-29T09:59:36.930Z,99370.34
2023-03-29T10:02:09.218Z,99375.53
2023-03-29T10:04:36.897Z,99374.72
2023-03-29T10:07:04.766Z,99379.75
2023-03-29T10:09:32.555Z,99364.16
2023-03-29T10:12:03.223Z,99363.25
2023-03-29T10:17:19.901Z,99359.72
2023-03-29T10:19:50.412Z,99356.91
2023-03-29T10:22:22.930Z,99338.69
2023-03-29T10:24:52.134Z,99345.53
2023-03-29T10:27:29.116Z,99337.69
2023-03-29T10:29:58.529Z,99342.88
2023-03-29T10:32:35.675Z,99327.38
2023-03-29T10:37:50.437Z,99305.75
2023-03-29T10:40:25.874Z,99310.09
2023-03-29T10:42:54.022Z,99300.59
2023-03-29T10:45:25.812Z,99301.47
2023-03-29T10:47:56.016Z,99291.88
2023-03-29T10:50:22.964Z,99284.03
2023-03-29T10:52:50.526Z,99276.19
2023-03-29T10:55:17.376Z,99273.63
2023-03-29T10:57:56.257Z,99279.63
2023-03-29T11:00:32.606Z,99266.69
2023-03-29T11:27:04.835Z,99241.53
2023-03-29T11:29:44.546Z,99234.66
2023-03-29T11:42:48.505Z,99219.94
2023-03-29T11:45:24.433Z,99215.44
2023-03-29T11:47:54.255Z,99202.44
2023-03-29T11:50:32.203Z,99213.72
2023-03-29T11:53:08.424Z,99204.16
2023-03-29T11:55:39.516Z,99198.22
2023-03-29T12:00:55.769Z,99200.69
2023-03-29T12:04:01.669Z,99203.25
2023-03-29T12:11:54.796Z,99196.72
2023-03-29T12:14:28.277Z,99193.03
2023-03-29T12:17:01.623Z,99195.34
2023-03-29T12:19:37.506Z,99189.91
2023-03-29T12:22:07.931Z,99190.59
2023-03-29T12:24:36.538Z,99193.75
2023-03-29T12:29:55.332Z,99196.19
2023-03-29T12:40:54.210Z,99178.78
2023-03-29T12:43:43.561Z,99178.91
2023-03-29T12:48:57.362Z,99155.16
2023-03-29T12:51:32.551Z,99140.19
2023-03-29T12:54:12.755Z,99148.53
2023-03-29T13:04:54.601Z,99134.59
2023-03-29T13:10:03.215Z,99116.41
2023-03-29T13:12:39.595Z,99114.91
2023-03-29T13:15:08.016Z,99113.59
2023-03-29T13:23:36.871Z,99134.03
2023-03-29T13:39:24.758Z,99112.16
2023-03-29T13:41:53.436Z,99105.44
2023-03-29T13:47:05.556Z,99111.56
2023-03-29T13:49:35.561Z,99116.81
2023-03-29T13:52:21.865Z,99115.44
2023-03-29T13:54:56.162Z,99112.59
2023-03-29T13:57:32.632Z,99112.44
2023-03-29T14:00:01.735Z,99112.84
2023-03-29T14:05:11.597Z,99101.97
2023-03-29T14:07:43.436Z,99099.28
2023-03-29T14:10:16.255Z,99101.72
2023-03-29T14:12:43.092Z,99089.53
2023-03-29T14:15:21.893Z,99084.16
2023-03-29T14:17:48.905Z,99077.69
2023-03-29T14:20:16.676Z,99060.91
2023-03-29T14:22:44.325Z,99066.97
2023-03-29T14:25:17.388Z,99070.38
2023-03-29T14:27:44.295Z,99054.75
2023-03-29T14:30:22.655Z,99053.25
2023-03-29T14:32:50.543Z,99042.16
2023-03-29T14:35:17.620Z,99031.78
2023-03-29T14:37:46.521Z,99042.41
2023-03-29T14:40:18.931Z,99024.53
2023-03-29T14:42:47.498Z,99019.53
2023-03-29T14:45:17.128Z,99010.81
2023-03-29T14:47:45.021Z,99008.22
2023-03-29T14:50:33.502Z,99002.97
2023-03-29T14:53:01.481Z,98993.41
2023-03-29T14:55:28.190Z,98994.00
2023-03-29T14:57:55.627Z,98987.81
2023-03-29T15:00:30.252Z,98982.50
2023-03-29T15:05:39.625Z,98984.72
2023-03-29T15:08:10.444Z,98975.06
2023-03-29T15:10:38.720Z,98980.34
2023-03-29T15:13:07.785Z,98979.63
2023-03-29T15:15:38.439Z,98984.84
2023-03-29T15:18:07.965Z,98975.56
2023-03-29T15:20:38.298Z,98975.66
2023-03-29T15:25:53.764Z,98959.28
2023-03-29T15:28:31.301Z,98969.59
2023-03-29T15:31:09.855Z,98968.78
2023-03-29T15:33:39.694Z,98966.06
2023-03-29T15:36:08.300Z,98962.28
2023-03-29T15:38:44.117Z,98965.44
2023-03-29T15:41:13.997Z,98966.22
2023-03-29T15:43:41.461Z,98971.44
2023-03-29T15:46:10.509Z,98961.78
2023-03-29T15:48:37.422Z,98966.06
2023-03-29T15:51:06.399Z,98957.41
2023-03-29T15:53:33.817Z,98960.97
2023-03-29T15:56:02.497Z,98962.78
2023-03-29T15:58:32.380Z,98953.16
2023-03-29T16:01:11.463Z,98941.16
2023-03-29T16:03:39.357Z,98944.34
2023-03-29T16:06:06.350Z,98937.41
2023-03-29T16:08:32.891Z,98932.25
2023-03-29T16:10:59.452Z,98924.72
2023-03-29T16:13:26.034Z,98920.13
2023-03-29T16:15:52.686Z,98923.63
2023-03-29T16:18:19.293Z,98914.94
2023-03-29T16:20:46.624Z,98909.63
2023-03-29T16:23:13.391Z,98908.66
2023-03-29T16:25:40.780Z,98916.44
2023-03-29T16:28:09.121Z,98919.06
2023-03-29T16:30:38.386Z,98911.22
2023-03-29T16:33:08.870Z,98916.28
2023-03-29T16:35:39.895Z,98909.41
2023-03-29T16:38:07.754Z,98906.84
2023-03-29T16:40:34.776Z,98907.91
2023-03-29T16:43:02.130Z,98887.94
2023-03-29T16:45:28.841Z,98883.69
2023-03-29T16:47:56.200Z,98865.47
2023-03-29T16:50:23.209Z,98874.25
2023-03-29T16:52:52.467Z,98871.69
2023-03-29T16:55:19.375Z,98868.19
2023-03-29T16:57:47.691Z,98873.50
2023-03-29T17:00:16.952Z,98882.31
2023-03-29T17:02:44.101Z,98887.50
2023-03-29T17:05:12.632Z,98881.41
2023-03-29T17:07:39.410Z,98879.75
2023-03-29T17:10:08.279Z,98877.09
2023-03-29T17:12:35.497Z,98869.34
2023-03-29T17:15:02.918Z,98865.09
2023-03-29T17:17:29.628Z,98851.28
2023-03-29T17:19:56.799Z,98860.81
2023-03-29T17:22:24.541Z,98856.63
2023-03-29T17:24:51.153Z,98854.91
2023-03-29T17:27:18.235Z,98851.53
2023-03-29T17:29:44.794Z,98854.91
2023-03-29T17:32:11.351Z,98844.63
2023-03-29T17:34:38.773Z,98838.72
2023-03-29T17:37:05.371Z,98834.63
2023-03-29T17:39:32.154Z,98825.25
2023-03-29T17:41:58.857Z,98834.06
2023-03-29T17:44:25.572Z,98834.91
2023-03-29T17:46:52.243Z,98824.72
2023-03-29T17:49:18.901Z,98823.94
2023-03-29T17:51:45.898Z,98824.84
2023-03-29T17:54:12.561Z,98813.75
2023-03-29T17:56:39.187Z,98814.78
2023-03-29T17:59:05.937Z,98803.53
2023-03-29T18:01:32.888Z,98794.19
2023-03-29T18:03:59.501Z,98804.56
2023-03-29T18:06:26.264Z,98799.44
2023-03-29T18:08:53.359Z,98798.50
2023-03-29T18:11:22.951Z,98786.44
2023-03-29T18:13:51.522Z,98776.94
2023-03-29T18:16:20.019Z,98766.75
2023-03-29T18:18:46.942Z,98772.81
2023-03-29T18:21:15.074Z,98773.66
2023-03-29T18:23:45.046Z,98779.06
2023-03-29T18:26:12.259Z,98778.56
2023-03-29T18:28:38.910Z,98785.38
2023-03-29T18:31:06.428Z,98774.09
2023-03-29T18:33:36.659Z,98782.09
2023-03-29T18:36:08.519Z,98771.88
2023-03-29T18:38:36.739Z,98785.72
2023-03-29T18:41:04.600Z,98781.44
2023-03-29T18:43:33.473Z,98774.56
2023-03-29T18:46:00.163Z,98778.16
2023-03-29T18:48:27.632Z,98776.47
2023-03-29T18:50:57.896Z,98769.44
2023-03-29T18:53:24.902Z,98778.16
2023-03-29T18:55:51.514Z,98784.19
2023-03-29T18:58:20.424Z,98784.41
2023-03-29T19:00:47.034Z,98782.75
2023-03-29T19:03:13.809Z,98788.81
2023-03-29T19:05:40.566Z,98783.63
2023-03-29T19:08:08.529Z,98787.25
2023-03-29T19:10:37.818Z,98778.81
2023-03-29T19:13:05.075Z,98781.94
2023-03-29T19:15:34.082Z,98773.34
2023-03-29T19:18:01.025Z,98762.97
2023-03-29T19:20:27.836Z,98759.56
2023-03-29T19:22:54.459Z,98751.72
2023-03-29T19:25:21.118Z,98741.28
2023-03-29T19:27:47.870Z,98728.38
2023-03-29T19:30:14.940Z,98726.75
2023-03-29T19:32:41.700Z,98728.47
2023-03-29T19:35:09.851Z,98726.78
2023-03-29T19:37:36.707Z,98719.91
2023-03-29T19:40:06.605Z,98718.31
2023-03-29T19:42:36.281Z,98720.47
2023-03-29T19:45:04.105Z,98708.53
2023-03-29T19:47:31.311Z,98703.00
2023-03-29T19:49:58.771Z,98697.81
2023-03-29T19:52:28.066Z,98692.72
2023-03-29T19:54:56.458Z,98683.94
2023-03-29T19:57:24.077Z,98690.03
2023-03-29T19:59:53.162Z,98693.56
2023-03-29T20:02:20.126Z,98691.78
2023-03-29T20:04:47.110Z,98692.72
2023-03-29T20:07:13.918Z,98681.44
2023-03-29T20:09:44.637Z,98685.00
2023-03-29T20:12:11.936Z,98678.91
2023-03-29T20:14:40.288Z,98650.34
2023-03-29T20:17:07.409Z,98658.19
2023-03-29T20:19:36.664Z,98668.56
2023-03-29T20:22:04.554Z,98660.81
2023-03-29T20:24:32.712Z,98673.75
2023-03-29T20:26:59.443Z,98652.13
2023-03-29T20:29:26.455Z,98663.47
2023-03-29T20:31:53.512Z,98659.03
2023-03-29T20:34:20.245Z,98659.97
2023-03-29T20:36:46.996Z,98647.78
2023-03-29T20:39:17.672Z,98644.28
2023-03-29T20:41:47.455Z,98646.09
2023-03-29T20:44:16.856Z,98638.34
2023-03-29T20:46:54.589Z,98632.31
2023-03-29T20:49:26.544Z,98633.91
2023-03-29T20:51:58.502Z,98627.94
2023-03-29T20:54:25.995Z,98629.63
2023-03-29T20:56:54.761Z,98621.81
2023-03-29T20:59:22.841Z,98627.81
2023-03-29T21:01:50.476Z,98620.00
2023-03-29T21:04:17.210Z,98620.88
2023-03-29T21:06:45.734Z,98613.19
2023-03-29T21:09:13.681Z,98601.06
2023-03-29T21:11:40.908Z,98600.97
2023-03-29T21:14:09.249Z,98602.75
2023-03-29T21:16:35.857Z,98595.88
2023-03-29T21:19:02.614Z,98595.88
2023-03-29T21:21:29.734Z,98600.16
2023-03-29T21:23:56.407Z,98594.91
2023-03-29T21:26:23.557Z,98600.09
2023-03-29T21:28:50.459Z,98587.97
2023-03-29T21:31:17.336Z,98593.19
2023-03-29T21:33:43.901Z,98577.69
2023-03-29T21:36:10.855Z,98587.25
2023-03-29T21:38:37.488Z,98587.25
2023-03-29T21:41:04.329Z,98583.88
2023-03-29T21:43:31.052Z,98584.00
2023-03-29T21:45:57.769Z,98584.09
2023-03-29T21:48:24.458Z,98588.53
2023-03-29T21:50:51.179Z,98596.19
2023-03-29T21:53:18.420Z,98596.06
2023-03-29T21:55:47.898Z,98594.31
2023-03-29T21:58:14.624Z,98595.97
2023-03-29T22:00:41.784Z,98595.97
2023-03-29T22:03:08.486Z,98604.56
2023-03-29T22:05:35.571Z,98601.16
2023-03-29T22:08:04.099Z,98588.19
2023-03-29T22:10:36.862Z,98590.69
2023-03-29T22:13:03.536Z,98596.81
2023-03-29T22:15:35.448Z,98599.38
2023-03-29T22:18:03.310Z,98590.78
2023-03-29T22:20:30.401Z,98590.78
2023-03-29T22:22:57.019Z,98585.63
2023-03-29T22:25:24.390Z,98588.19
2023-03-29T22:27:51.115Z,98585.69
2023-03-29T22:30:18.020Z,98571.91
2023-03-29T22:32:45.070Z,98575.50
2023-03-29T22:35:11.817Z,98573.78
2023-03-29T22:37:43.986Z,98573.78
2023-03-29T22:40:12.900Z,98573.69
2023-03-29T22:42:39.837Z,98568.50
2023-03-29T22:45:07.490Z,98562.50
2023-03-29T22:47:35.348Z,98565.91
2023-03-29T22:50:01.939Z,98571.16
2023-03-29T22:52:28.872Z,98565.13
2023-03-29T22:54:55.470Z,98562.50
2023-03-29T22:57:22.127Z,98560.91
2023-03-29T22:59:48.716Z,98565.19
2023-03-29T23:02:15.725Z,98565.22
2023-03-29T23:04:42.414Z,98558.34
2023-03-29T23:07:09.214Z,98549.66
2023-03-29T23:09:35.752Z,98553.16
2023-03-29T23:12:02.372Z,98553.16
2023-03-29T23:14:28.918Z,98551.56
2023-03-29T23:16:55.416Z,98536.00
2023-03-29T23:19:22.372Z,98536.09
2023-03-29T23:21:49.073Z,98532.63
2023-03-29T23:24:19.015Z,98530.81
2023-03-29T23:26:45.905Z,98536.00
2023-03-29T23:29:13.652Z,98517.81
2023-03-29T23:31:40.200Z,98523.03
2023-03-29T23:34:06.827Z,98516.91
2023-03-29T23:36:33.362Z,98514.38
2023-03-29T23:39:00.348Z,98515.22
2023-03-29T23:41:28.326Z,98522.22
2023-03-29T23:43:57.634Z,98517.00
2023-03-29T23:46:24.696Z,98510.97
2023-03-29T23:48:51.451Z,98511.94
2023-03-29T23:51:23.022Z,98505.09
2023-03-29T23:53:50.126Z,98506.81
2023-03-29T23:56:16.930Z,98508.72
2023-03-29T23:58:44.440Z,98498.28
